Wetterstation Oberdrees
Wetterdaten: aktuell Mittwoch, 31.05.2023 19:05
Datum Zeit Temp. A. Feuchte A. Luftdruck Regen Wind Richtung Richtung Taupunkt Windchill Windben
31.05.2023 19:05 26,5 C 37 % 1020,7 hPa 0,0 l/m 4,3 km/h (1 Bft) O 82 10,6 C 26,5 C 12,9 km/h (3 Bft)
31.05.2023 19:00 26,8 C 37 % 1020,8 hPa 0,0 l/m 4,6 km/h (1 Bft) O 84 10,9 C 26,8 C 12,9 km/h (3 Bft)
31.05.2023 18:55 27,1 C 35 % 1020,9 hPa 0,0 l/m 4,7 km/h (1 Bft) O-NO 59 10,3 C 27,1 C 12,9 km/h (3 Bft)
31.05.2023 18:50 27,3 C 35 % 1020,9 hPa 0,0 l/m 3,9 km/h (1 Bft) O 83 10,5 C 27,3 C 9,7 km/h (2 Bft)
31.05.2023 18:45 27,4 C 36 % 1020,9 hPa 0,0 l/m 2,5 km/h (1 Bft) O 95 11,0 C 27,4 C 6,4 km/h (2 Bft)
31.05.2023 18:40 27,3 C 36 % 1021,0 hPa 0,0 l/m 2,9 km/h (1 Bft) O 84 10,9 C 27,3 C 8,0 km/h (2 Bft)
31.05.2023 18:35 27,2 C 36 % 1020,9 hPa 0,0 l/m 3,3 km/h (1 Bft) O-NO 68 10,8 C 27,2 C 8,0 km/h (2 Bft)
31.05.2023 18:30 27,4 C 35 % 1020,9 hPa 0,0 l/m 3,0 km/h (1 Bft) O-NO 72 10,6 C 27,4 C 9,7 km/h (2 Bft)
31.05.2023 18:25 27,4 C 35 % 1020,9 hPa 0,0 l/m 1,9 km/h (1 Bft) O-NO 71 10,6 C 27,4 C 9,7 km/h (2 Bft)
31.05.2023 18:20 27,3 C 35 % 1020,9 hPa 0,0 l/m 1,4 km/h (1 Bft) O 89 10,5 C 27,3 C 4,8 km/h (1 Bft)
31.05.2023 18:15 27,2 C 34 % 1021,0 hPa 0,0 l/m 1,7 km/h (1 Bft) O 88 10,0 C 27,2 C 4,8 km/h (1 Bft)
31.05.2023 18:10 27,1 C 35 % 1021,1 hPa 0,0 l/m 3,3 km/h (1 Bft) O-NO 65 10,3 C 27,1 C 11,3 km/h (2 Bft)
31.05.2023 18:05 27,2 C 34 % 1021,1 hPa 0,0 l/m 6,2 km/h (2 Bft) O-NO 78 10,0 C 27,2 C 16,1 km/h (3 Bft)
31.05.2023 18:00 27,4 C 34 % 1021,1 hPa 0,0 l/m 5,4 km/h (2 Bft) O 79 10,1 C 27,4 C 16,1 km/h (3 Bft)
31.05.2023 17:55 27,4 C 35 % 1021,2 hPa 0,0 l/m 2,8 km/h (1 Bft) O 101 10,6 C 27,4 C 8,0 km/h (2 Bft)
31.05.2023 17:50 27,3 C 35 % 1021,1 hPa 0,0 l/m 5,6 km/h (2 Bft) N-NO 31 10,5 C 27,3 C 12,9 km/h (3 Bft)
31.05.2023 17:45 27,6 C 34 % 1021,2 hPa 0,0 l/m 4,3 km/h (1 Bft) NO 48 10,3 C 27,6 C 12,9 km/h (3 Bft)
31.05.2023 17:40 27,5 C 34 % 1021,2 hPa 0,0 l/m 3,7 km/h (1 Bft) O 87 10,2 C 27,5 C 11,3 km/h (2 Bft)
31.05.2023 17:35 27,4 C 33 % 1021,3 hPa 0,0 l/m 1,6 km/h (1 Bft) O-SO 106 9,7 C 27,4 C 4,8 km/h (1 Bft)
31.05.2023 17:30 27,3 C 34 % 1021,3 hPa 0,0 l/m 4,0 km/h (1 Bft) O 80 10,0 C 27,3 C 11,3 km/h (2 Bft)
31.05.2023 17:25 27,2 C 34 % 1021,3 hPa 0,0 l/m 4,5 km/h (1 Bft) O 95 10,0 C 27,2 C 9,7 km/h (2 Bft)
31.05.2023 17:20 27,2 C 34 % 1021,3 hPa 0,0 l/m 4,5 km/h (1 Bft) O-NO 57 10,0 C 27,2 C 12,9 km/h (3 Bft)
31.05.2023 17:15 27,2 C 35 % 1021,3 hPa 0,0 l/m 3,9 km/h (1 Bft) O-NO 69 10,4 C 27,2 C 8,0 km/h (2 Bft)
31.05.2023 17:10 27,1 C 34 % 1021,4 hPa 0,0 l/m 4,3 km/h (1 Bft) O-NO 67 9,9 C 27,1 C 11,3 km/h (2 Bft)
31.05.2023 17:05 27,2 C 34 % 1021,5 hPa 0,0 l/m 3,7 km/h (1 Bft) O 79 10,0 C 27,2 C 14,5 km/h (3 Bft)
31.05.2023 17:00 27,1 C 35 % 1021,5 hPa 0,0 l/m 6,5 km/h (2 Bft) O 81 10,3 C 27,1 C 17,7 km/h (3 Bft)
31.05.2023 16:55 27,4 C 33 % 1021,6 hPa 0,0 l/m 4,1 km/h (1 Bft) O 85 9,7 C 27,4 C 12,9 km/h (3 Bft)
31.05.2023 16:50 27,4 C 35 % 1021,6 hPa 0,0 l/m 4,2 km/h (1 Bft) O 84 10,6 C 27,4 C 11,3 km/h (2 Bft)
31.05.2023 16:45 27,2 C 35 % 1021,6 hPa 0,0 l/m 3,3 km/h (1 Bft) O-SO 110 10,4 C 27,2 C 9,7 km/h (2 Bft)
31.05.2023 16:40 27,2 C 34 % 1021,7 hPa 0,0 l/m 3,8 km/h (1 Bft) NO 38 10,0 C 27,2 C 8,0 km/h (2 Bft)
31.05.2023 16:35 27,1 C 34 % 1021,7 hPa 0,0 l/m 4,9 km/h (1 Bft) O-NO 60 9,9 C 27,1 C 9,7 km/h (2 Bft)
31.05.2023 16:30 27,1 C 35 % 1021,7 hPa 0,0 l/m 4,6 km/h (1 Bft) NO 55 10,3 C 27,1 C 14,5 km/h (3 Bft)
31.05.2023 16:25 27,0 C 35 % 1021,8 hPa 0,0 l/m 3,7 km/h (1 Bft) O-NO 76 10,2 C 27,0 C 11,3 km/h (2 Bft)
31.05.2023 16:20 27,0 C 35 % 1021,8 hPa 0,0 l/m 6,3 km/h (2 Bft) SW 228 10,2 C 27,0 C 14,5 km/h (3 Bft)
31.05.2023 16:15 27,1 C 34 % 1021,8 hPa 0,0 l/m 3,5 km/h (1 Bft) O 80 9,9 C 27,1 C 9,7 km/h (2 Bft)
31.05.2023 16:10 27,1 C 36 % 1021,9 hPa 0,0 l/m 3,3 km/h (1 Bft) O 93 10,7 C 27,1 C 11,3 km/h (2 Bft)
31.05.2023 16:05 27,0 C 35 % 1022,0 hPa 0,0 l/m 4,1 km/h (1 Bft) O 82 10,2 C 27,0 C 16,1 km/h (3 Bft)
31.05.2023 16:00 27,0 C 35 % 1022,0 hPa 0,0 l/m 5,3 km/h (1 Bft) O 97 10,2 C 27,0 C 12,9 km/h (3 Bft)
31.05.2023 15:55 26,8 C 35 % 1022,0 hPa 0,0 l/m 3,6 km/h (1 Bft) NO 39 10,0 C 26,8 C 12,9 km/h (3 Bft)
31.05.2023 15:50 26,7 C 35 % 1022,1 hPa 0,0 l/m 4,0 km/h (1 Bft) O-NO 78 10,0 C 26,7 C 14,5 km/h (3 Bft)
31.05.2023 15:45 26,6 C 35 % 1022,2 hPa 0,0 l/m 4,2 km/h (1 Bft) NO 56 9,9 C 26,6 C 11,3 km/h (2 Bft)
31.05.2023 15:40 26,6 C 34 % 1022,3 hPa 0,0 l/m 5,3 km/h (1 Bft) O-NO 69 9,4 C 26,6 C 14,5 km/h (3 Bft)
31.05.2023 15:35 26,7 C 34 % 1022,3 hPa 0,0 l/m 3,9 km/h (1 Bft) O 90 9,5 C 26,7 C 14,5 km/h (3 Bft)
31.05.2023 15:30 26,7 C 34 % 1022,4 hPa 0,0 l/m 4,1 km/h (1 Bft) NO 50 9,5 C 26,7 C 12,9 km/h (3 Bft)
31.05.2023 15:25 26,7 C 34 % 1022,4 hPa 0,0 l/m 3,3 km/h (1 Bft) O-NO 76 9,5 C 26,7 C 8,0 km/h (2 Bft)
31.05.2023 15:20 26,6 C 35 % 1022,5 hPa 0,0 l/m 3,4 km/h (1 Bft) O 92 9,9 C 26,6 C 16,1 km/h (3 Bft)
31.05.2023 15:15 26,4 C 35 % 1022,5 hPa 0,0 l/m 4,4 km/h (1 Bft) NO 39 9,7 C 26,4 C 9,7 km/h (2 Bft)
31.05.2023 15:10 26,4 C 36 % 1022,6 hPa 0,0 l/m 3,4 km/h (1 Bft) NO 44 10,1 C 26,4 C 14,5 km/h (3 Bft)
31.05.2023 15:05 26,3 C 36 % 1022,7 hPa 0,0 l/m 3,9 km/h (1 Bft) O-SO 109 10,0 C 26,3 C 9,7 km/h (2 Bft)
31.05.2023 15:00 26,1 C 36 % 1022,7 hPa 0,0 l/m 3,5 km/h (1 Bft) O-NO 74 9,8 C 26,1 C 11,3 km/h (2 Bft)
31.05.2023 14:55 25,9 C 37 % 1022,7 hPa 0,0 l/m 4,7 km/h (1 Bft) NO 53 10,1 C 25,9 C 12,9 km/h (3 Bft)
31.05.2023 14:50 26,1 C 36 % 1022,8 hPa 0,0 l/m 5,6 km/h (2 Bft) NO 41 9,8 C 26,1 C 12,9 km/h (3 Bft)
31.05.2023 14:45 26,3 C 35 % 1022,9 hPa 0,0 l/m 4,5 km/h (1 Bft) O 81 9,6 C 26,3 C 12,9 km/h (3 Bft)
31.05.2023 14:40 26,2 C 36 % 1022,9 hPa 0,0 l/m 4,6 km/h (1 Bft) O 98 9,9 C 26,2 C 12,9 km/h (3 Bft)
31.05.2023 14:35 26,0 C 36 % 1022,9 hPa 0,0 l/m 4,8 km/h (1 Bft) SO 128 9,8 C 26,0 C 16,1 km/h (3 Bft)
31.05.2023 14:30 25,9 C 36 % 1022,9 hPa 0,0 l/m 4,4 km/h (1 Bft) S 169 9,7 C 25,9 C 14,5 km/h (3 Bft)
31.05.2023 14:25 25,9 C 35 % 1023,0 hPa 0,0 l/m 3,5 km/h (1 Bft) S-SO 158 9,3 C 25,9 C 12,9 km/h (3 Bft)
31.05.2023 14:20 25,7 C 35 % 1023,1 hPa 0,0 l/m 4,4 km/h (1 Bft) O-SO 123 9,1 C 25,7 C 14,5 km/h (3 Bft)
31.05.2023 14:15 25,4 C 36 % 1023,1 hPa 0,0 l/m 6,8 km/h (2 Bft) O-NO 71 9,2 C 25,3 C 16,1 km/h (3 Bft)
31.05.2023 14:10 25,5 C 37 % 1023,1 hPa 0,0 l/m 4,2 km/h (1 Bft) O-NO 76 9,7 C 25,5 C 17,7 km/h (3 Bft)
31.05.2023 14:05 25,4 C 35 % 1023,2 hPa 0,0 l/m 6,8 km/h (2 Bft) O-NO 75 8,8 C 25,3 C 16,1 km/h (3 Bft)
31.05.2023 14:00 25,4 C 37 % 1023,3 hPa 0,0 l/m 4,8 km/h (1 Bft) NO 38 9,6 C 25,4 C 16,1 km/h (3 Bft)
31.05.2023 13:55 25,2 C 37 % 1023,4 hPa 0,0 l/m 4,8 km/h (1 Bft) O 101 9,5 C 25,2 C 17,7 km/h (3 Bft)
31.05.2023 13:50 25,1 C 37 % 1023,4 hPa 0,0 l/m 6,1 km/h (2 Bft) O-NO 69 9,4 C 25,1 C 16,1 km/h (3 Bft)
31.05.2023 13:45 25,1 C 37 % 1023,5 hPa 0,0 l/m 4,9 km/h (1 Bft) O 86 9,4 C 25,1 C 14,5 km/h (3 Bft)
31.05.2023 13:40 25,0 C 38 % 1023,4 hPa 0,0 l/m 5,3 km/h (1 Bft) O 79 9,7 C 25,0 C 11,3 km/h (2 Bft)
31.05.2023 13:35 24,9 C 38 % 1023,5 hPa 0,0 l/m 4,6 km/h (1 Bft) O 101 9,6 C 24,9 C 12,9 km/h (3 Bft)
31.05.2023 13:30 24,5 C 39 % 1023,5 hPa 0,0 l/m 7,8 km/h (2 Bft) SW 225 9,6 C 24,1 C 17,7 km/h (3 Bft)
31.05.2023 13:25 24,5 C 38 % 1023,5 hPa 0,0 l/m 9,1 km/h (2 Bft) NO 42 9,2 C 23,8 C 19,3 km/h (3 Bft)
31.05.2023 13:20 24,6 C 38 % 1023,5 hPa 0,0 l/m 4,9 km/h (1 Bft) NO 54 9,3 C 24,6 C 12,9 km/h (3 Bft)
31.05.2023 13:15 24,6 C 39 % 1023,7 hPa 0,0 l/m 6,5 km/h (2 Bft) O-SO 113 9,7 C 24,6 C 20,9 km/h (4 Bft)
31.05.2023 13:10 24,6 C 38 % 1023,6 hPa 0,0 l/m 7,4 km/h (2 Bft) O-NO 63 9,3 C 24,3 C 20,9 km/h (4 Bft)
31.05.2023 13:05 24,6 C 37 % 1023,6 hPa 0,0 l/m 3,0 km/h (1 Bft) O-NO 65 8,9 C 24,6 C 9,7 km/h (2 Bft)
31.05.2023 13:00 24,4 C 38 % 1023,6 hPa 0,0 l/m 5,4 km/h (2 Bft) O-NO 73 9,2 C 24,4 C 20,9 km/h (4 Bft)
31.05.2023 12:55 24,1 C 41 % 1023,7 hPa 0,0 l/m 7,3 km/h (2 Bft) O 91 10,0 C 23,8 C 19,3 km/h (3 Bft)
31.05.2023 12:50 24,3 C 40 % 1023,8 hPa 0,0 l/m 7,0 km/h (2 Bft) O-NO 60 9,8 C 24,1 C 19,3 km/h (3 Bft)
31.05.2023 12:45 24,3 C 43 % 1023,8 hPa 0,0 l/m 4,5 km/h (1 Bft) O-NO 67 10,9 C 24,3 C 14,5 km/h (3 Bft)
31.05.2023 12:40 24,2 C 41 % 1023,9 hPa 0,0 l/m 4,7 km/h (1 Bft) O-NO 73 10,1 C 24,2 C 12,9 km/h (3 Bft)
31.05.2023 12:35 23,8 C 43 % 1023,9 hPa 0,0 l/m 4,7 km/h (1 Bft) O-NO 64 10,5 C 23,8 C 17,7 km/h (3 Bft)
31.05.2023 12:30 23,4 C 44 % 1024,0 hPa 0,0 l/m 6,9 km/h (2 Bft) O 98 10,4 C 23,3 C 16,1 km/h (3 Bft)
31.05.2023 12:25 23,4 C 46 % 1024,0 hPa 0,0 l/m 6,4 km/h (2 Bft) N-NO 32 11,1 C 23,4 C 16,1 km/h (3 Bft)
31.05.2023 12:20 23,3 C 46 % 1024,0 hPa 0,0 l/m 3,7 km/h (1 Bft) O 84 11,0 C 23,3 C 16,1 km/h (3 Bft)
31.05.2023 12:15 22,9 C 48 % 1024,1 hPa 0,0 l/m 4,2 km/h (1 Bft) O-SO 110 11,3 C 22,9 C 12,9 km/h (3 Bft)
31.05.2023 12:10 22,9 C 46 % 1024,2 hPa 0,0 l/m 3,6 km/h (1 Bft) NW 304 10,7 C 22,9 C 8,0 km/h (2 Bft)
31.05.2023 12:05 22,8 C 48 % 1024,4 hPa 0,0 l/m 2,9 km/h (1 Bft) S-SW 207 11,2 C 22,8 C 16,1 km/h (3 Bft)
31.05.2023 12:00 22,7 C 48 % 1024,4 hPa 0,0 l/m 5,2 km/h (1 Bft) NO 44 11,1 C 22,7 C 11,3 km/h (2 Bft)
31.05.2023 11:55 22,6 C 48 % 1024,4 hPa 0,0 l/m 5,3 km/h (1 Bft) O-NO 57 11,0 C 22,6 C 16,1 km/h (3 Bft)
31.05.2023 11:50 22,7 C 49 % 1024,5 hPa 0,0 l/m 3,9 km/h (1 Bft) NO 56 11,4 C 22,7 C 14,5 km/h (3 Bft)
31.05.2023 11:45 22,6 C 50 % 1024,6 hPa 0,0 l/m 4,0 km/h (1 Bft) O 98 11,6 C 22,6 C 16,1 km/h (3 Bft)
31.05.2023 11:40 22,2 C 52 % 1024,6 hPa 0,0 l/m 1,8 km/h (1 Bft) O 86 11,9 C 22,2 C 6,4 km/h (2 Bft)
31.05.2023 11:35 22,0 C 51 % 1024,6 hPa 0,0 l/m 2,6 km/h (1 Bft) O 84 11,4 C 22,0 C 8,0 km/h (2 Bft)
31.05.2023 11:30 21,7 C 54 % 1024,6 hPa 0,0 l/m 5,1 km/h (1 Bft) N-NO 28 12,0 C 21,7 C 11,3 km/h (2 Bft)
31.05.2023 11:25 21,7 C 55 % 1024,7 hPa 0,0 l/m 3,8 km/h (1 Bft) O-NO 76 12,3 C 21,7 C 16,1 km/h (3 Bft)
31.05.2023 11:20 21,5 C 54 % 1024,7 hPa 0,0 l/m 3,3 km/h (1 Bft) O 84 11,8 C 21,5 C 14,5 km/h (3 Bft)
31.05.2023 11:15 21,1 C 56 % 1024,8 hPa 0,0 l/m 1,2 km/h (1 Bft) O 95 12,0 C 21,1 C 6,4 km/h (2 Bft)
31.05.2023 11:10 20,7 C 58 % 1024,7 hPa 0,0 l/m 2,3 km/h (1 Bft) NO 53 12,1 C 20,7 C 9,7 km/h (2 Bft)
31.05.2023 11:05 20,4 C 57 % 1024,9 hPa 0,0 l/m 4,3 km/h (1 Bft) O-NO 65 11,6 C 20,4 C 9,7 km/h (2 Bft)
31.05.2023 11:00 20,4 C 59 % 1024,9 hPa 0,0 l/m 4,9 km/h (1 Bft) NO 51 12,1 C 20,4 C 9,7 km/h (2 Bft)
31.05.2023 10:55 20,4 C 58 % 1024,9 hPa 0,0 l/m 4,5 km/h (1 Bft) NO 53 11,9 C 20,4 C 9,7 km/h (2 Bft)
31.05.2023 10:50 20,3 C 59 % 1025,0 hPa 0,0 l/m 3,6 km/h (1 Bft) NO 44 12,0 C 20,3 C 11,3 km/h (2 Bft)
31.05.2023 10:45 20,0 C 61 % 1025,0 hPa 0,0 l/m 3,4 km/h (1 Bft) NO 44 12,2 C 20,0 C 8,0 km/h (2 Bft)
31.05.2023 10:40 19,7 C 61 % 1025,1 hPa 0,0 l/m 3,1 km/h (1 Bft) O-NO 59 12,0 C 19,7 C 6,4 km/h (2 Bft)
31.05.2023 10:35 19,7 C 66 % 1025,2 hPa 0,0 l/m 1,3 km/h (1 Bft) N-NO 30 13,2 C 19,7 C 4,8 km/h (1 Bft)
31.05.2023 10:30 19,7 C 66 % 1025,2 hPa 0,0 l/m 2,1 km/h (1 Bft) N-NO 29 13,2 C 19,7 C 4,8 km/h (1 Bft)
31.05.2023 10:25 19,8 C 64 % 1025,2 hPa 0,0 l/m 1,3 km/h (1 Bft) SO 126 12,8 C 19,8 C 6,4 km/h (2 Bft)
31.05.2023 10:20 19,5 C 64 % 1025,1 hPa 0,0 l/m 1,8 km/h (1 Bft) O 93 12,5 C 19,5 C 6,4 km/h (2 Bft)
31.05.2023 10:15 19,4 C 65 % 1025,3 hPa 0,0 l/m 0,0 km/h (0 Bft) O-SO 115 12,6 C 19,4 C 0,0 km/h (0 Bft)
31.05.2023 10:10 19,3 C 66 % 1025,3 hPa 0,0 l/m 0,8 km/h (0 Bft) O-SO 116 12,8 C 19,3 C 4,8 km/h (1 Bft)
31.05.2023 10:05 19,1 C 66 % 1025,3 hPa 0,0 l/m 1,3 km/h (1 Bft) O-SO 115 12,6 C 19,1 C 6,4 km/h (2 Bft)
31.05.2023 10:00 18,8 C 66 % 1025,3 hPa 0,0 l/m 0,4 km/h (0 Bft) O-SO 114 12,3 C 18,8 C 3,2 km/h (1 Bft)
31.05.2023 09:55 18,5 C 67 % 1025,3 hPa 0,0 l/m 0,8 km/h (0 Bft) O-SO 117 12,3 C 18,5 C 6,4 km/h (2 Bft)
31.05.2023 09:50 18,2 C 68 % 1025,4 hPa 0,0 l/m 1,8 km/h (1 Bft) O 98 12,2 C 18,2 C 6,4 km/h (2 Bft)
31.05.2023 09:45 18,1 C 68 % 1025,4 hPa 0,0 l/m 2,9 km/h (1 Bft) O-NO 72 12,1 C 18,1 C 8,0 km/h (2 Bft)
31.05.2023 09:40 18,1 C 68 % 1025,3 hPa 0,0 l/m 2,3 km/h (1 Bft) NO 51 12,1 C 18,1 C 6,4 km/h (2 Bft)
31.05.2023 09:35 17,8 C 69 % 1025,3 hPa 0,0 l/m 0,9 km/h (0 Bft) O 89 12,0 C 17,8 C 4,8 km/h (1 Bft)
31.05.2023 09:30 17,4 C 71 % 1025,3 hPa 0,0 l/m 0,4 km/h (0 Bft) O-SO 105 12,1 C 17,4 C 3,2 km/h (1 Bft)
31.05.2023 09:25 16,9 C 72 % 1025,4 hPa 0,0 l/m 1,1 km/h (1 Bft) O-SO 103 11,8 C 16,9 C 6,4 km/h (2 Bft)
31.05.2023 09:20 16,4 C 74 % 1025,4 hPa 0,0 l/m 0,8 km/h (0 Bft) O-NO 67 11,8 C 16,4 C 4,8 km/h (1 Bft)
31.05.2023 09:15 16,1 C 75 % 1025,3 hPa 0,0 l/m 0,0 km/h (0 Bft) O-NO 57 11,7 C 16,1 C 0,0 km/h (0 Bft)
31.05.2023 09:10 15,9 C 74 % 1025,3 hPa 0,0 l/m 2,2 km/h (1 Bft) O-NO 57 11,3 C 15,9 C 6,4 km/h (2 Bft)
31.05.2023 09:05 15,8 C 76 % 1025,3 hPa 0,0 l/m 0,0 km/h (0 Bft) O-NO 60 11,6 C 15,8 C 1,6 km/h (1 Bft)
31.05.2023 09:00 15,4 C 78 % 1025,4 hPa 0,0 l/m 0,0 km/h (0 Bft) O-NO 63 11,6 C 15,4 C 0,0 km/h (0 Bft)
31.05.2023 08:55 14,9 C 78 % 1025,4 hPa 0,0 l/m 0,0 km/h (0 Bft) O-NO 62 11,1 C 14,9 C 0,0 km/h (0 Bft)
31.05.2023 08:50 14,6 C 80 % 1025,4 hPa 0,0 l/m 0,0 km/h (0 Bft) N-NO 32 11,2 C 14,6 C 0,0 km/h (0 Bft)
31.05.2023 08:45 14,2 C 82 % 1025,4 hPa 0,0 l/m 0,0 km/h (0 Bft) N 10 11,2 C 14,2 C 0,0 km/h (0 Bft)
31.05.2023 08:40 14,2 C 81 % 1025,4 hPa 0,0 l/m 0,0 km/h (0 Bft) N 10 11,0 C 14,2 C 0,0 km/h (0 Bft)
31.05.2023 08:35 14,0 C 82 % 1025,4 hPa 0,0 l/m 0,0 km/h (0 Bft) W-NW 292 11,0 C 14,0 C 0,0 km/h (0 Bft)
31.05.2023 08:30 13,9 C 85 % 1025,5 hPa 0,0 l/m 0,0 km/h (0 Bft) W-NW 290 11,4 C 13,9 C 0,0 km/h (0 Bft)
31.05.2023 08:25 13,6 C 84 % 1025,5 hPa 0,0 l/m 0,0 km/h (0 Bft) W-NW 290 10,9 C 13,6 C 0,0 km/h (0 Bft)
31.05.2023 08:20 13,4 C 84 % 1025,4 hPa 0,0 l/m 0,0 km/h (0 Bft) W-NW 288 10,8 C 13,4 C 0,0 km/h (0 Bft)
31.05.2023 08:15 13,3 C 85 % 1025,3 hPa 0,0 l/m 0,0 km/h (0 Bft) W-NW 286 10,8 C 13,3 C 0,0 km/h (0 Bft)
31.05.2023 08:10 13,2 C 85 % 1025,3 hPa 0,0 l/m 0,0 km/h (0 Bft) W-NW 286 10,7 C 13,2 C 0,0 km/h (0 Bft)
31.05.2023 08:05 12,9 C 86 % 1025,3 hPa 0,0 l/m 0,0 km/h (0 Bft) W-NW 285 10,6 C 12,9 C 0,0 km/h (0 Bft)
31.05.2023 08:00 12,8 C 87 % 1025,4 hPa 0,0 l/m 0,0 km/h (0 Bft) W-NW 285 10,7 C 12,8 C 0,0 km/h (0 Bft)
31.05.2023 07:55 12,5 C 88 % 1025,4 hPa 0,0 l/m 0,0 km/h (0 Bft) W-NW 285 10,6 C 12,5 C 0,0 km/h (0 Bft)
31.05.2023 07:50 12,3 C 88 % 1025,4 hPa 0,0 l/m 0,0 km/h (0 Bft) W-NW 285 10,4 C 12,3 C 0,0 km/h (0 Bft)
31.05.2023 07:45 12,1 C 89 % 1025,4 hPa 0,0 l/m 0,0 km/h (0 Bft) W-NW 284 10,3 C 12,1 C 0,0 km/h (0 Bft)
31.05.2023 07:40 12,0 C 90 % 1025,4 hPa 0,0 l/m 0,0 km/h (0 Bft) W-NW 284 10,4 C 12,0 C 0,0 km/h (0 Bft)
31.05.2023 07:35 11,8 C 90 % 1025,5 hPa 0,0 l/m 0,0 km/h (0 Bft) W-NW 284 10,2 C 11,8 C 0,0 km/h (0 Bft)
31.05.2023 07:30 11,7 C 91 % 1025,4 hPa 0,0 l/m 0,0 km/h (0 Bft) W-NW 284 10,3 C 11,7 C 0,0 km/h (0 Bft)
31.05.2023 07:25 11,5 C 92 % 1025,5 hPa 0,0 l/m 0,0 km/h (0 Bft) W-NW 284 10,2 C 11,5 C 0,0 km/h (0 Bft)
31.05.2023 07:20 11,3 C 92 % 1025,6 hPa 0,0 l/m 0,0 km/h (0 Bft) W-NW 285 10,0 C 11,3 C 0,0 km/h (0 Bft)
31.05.2023 07:15 11,1 C 93 % 1025,4 hPa 0,0 l/m 0,0 km/h (0 Bft) W-NW 285 10,0 C 11,1 C 0,0 km/h (0 Bft)
31.05.2023 07:10 10,8 C 93 % 1025,4 hPa 0,0 l/m 0,0 km/h (0 Bft) W-NW 285 9,7 C 10,8 C 0,0 km/h (0 Bft)
31.05.2023 07:05 10,6 C 93 % 1025,3 hPa 0,0 l/m 0,0 km/h (0 Bft) W-NW 285 9,5 C 10,6 C 0,0 km/h (0 Bft)
31.05.2023 07:00 10,3 C 94 % 1025,2 hPa 0,0 l/m 0,0 km/h (0 Bft) W-NW 285 9,4 C 10,3 C 0,0 km/h (0 Bft)
31.05.2023 06:55 9,9 C 93 % 1025,4 hPa 0,0 l/m 0,0 km/h (0 Bft) W-NW 285 8,8 C 9,9 C 0,0 km/h (0 Bft)
31.05.2023 06:50 9,7 C 93 % 1025,4 hPa 0,0 l/m 0,0 km/h (0 Bft) W-NW 285 8,6 C 9,7 C 0,0 km/h (0 Bft)
31.05.2023 06:45 9,4 C 93 % 1025,4 hPa 0,0 l/m 0,0 km/h (0 Bft) W-NW 285 8,3 C 9,4 C 0,0 km/h (0 Bft)
31.05.2023 06:40 9,2 C 92 % 1025,5 hPa 0,0 l/m 0,0 km/h (0 Bft) W-NW 285 8,0 C 9,2 C 0,0 km/h (0 Bft)
31.05.2023 06:35 9,1 C 92 % 1025,5 hPa 0,0 l/m 0,0 km/h (0 Bft) W-NW 285 7,9 C 9,1 C 0,0 km/h (0 Bft)
31.05.2023 06:30 8,9 C 92 % 1025,3 hPa 0,0 l/m 0,0 km/h (0 Bft) W-NW 285 7,7 C 8,9 C 0,0 km/h (0 Bft)
31.05.2023 06:25 8,8 C 92 % 1025,4 hPa 0,0 l/m 0,0 km/h (0 Bft) W-NW 285 7,6 C 8,8 C 0,0 km/h (0 Bft)
31.05.2023 06:20 8,8 C 92 % 1025,4 hPa 0,0 l/m 0,0 km/h (0 Bft) W-NW 285 7,6 C 8,8 C 0,0 km/h (0 Bft)
31.05.2023 06:15 8,8 C 91 % 1025,3 hPa 0,0 l/m 0,0 km/h (0 Bft) W-NW 285 7,4 C 8,8 C 0,0 km/h (0 Bft)
31.05.2023 06:10 8,8 C 91 % 1025,3 hPa 0,0 l/m 0,0 km/h (0 Bft) W-NW 285 7,4 C 8,8 C 0,0 km/h (0 Bft)
31.05.2023 06:05 8,7 C 91 % 1025,4 hPa 0,0 l/m 0,0 km/h (0 Bft) W-NW 285 7,3 C 8,7 C 0,0 km/h (0 Bft)
31.05.2023 06:00 8,8 C 90 % 1025,2 hPa 0,0 l/m 0,0 km/h (0 Bft) W-NW 285 7,3 C 8,8 C 0,0 km/h (0 Bft)
31.05.2023 05:55 8,8 C 91 % 1025,1 hPa 0,0 l/m 0,0 km/h (0 Bft) W-NW 285 7,4 C 8,8 C 0,0 km/h (0 Bft)
31.05.2023 05:50 8,8 C 90 % 1025,2 hPa 0,0 l/m 0,0 km/h (0 Bft) W-NW 285 7,3 C 8,8 C 0,0 km/h (0 Bft)
31.05.2023 05:45 8,8 C 90 % 1025,2 hPa 0,0 l/m 0,0 km/h (0 Bft) W-NW 285 7,3 C 8,8 C 0,0 km/h (0 Bft)
31.05.2023 05:40 8,9 C 91 % 1025,2 hPa 0,0 l/m 0,0 km/h (0 Bft) W-NW 285 7,5 C 8,9 C 0,0 km/h (0 Bft)
31.05.2023 05:35 8,9 C 90 % 1025,1 hPa 0,0 l/m 0,0 km/h (0 Bft) W-NW 285 7,4 C 8,9 C 0,0 km/h (0 Bft)
31.05.2023 05:30 9,0 C 90 % 1025,3 hPa 0,0 l/m 0,0 km/h (0 Bft) W-NW 285 7,4 C 9,0 C 0,0 km/h (0 Bft)
31.05.2023 05:25 9,1 C 90 % 1025,3 hPa 0,0 l/m 0,0 km/h (0 Bft) W-NW 285 7,5 C 9,1 C 0,0 km/h (0 Bft)
31.05.2023 05:20 9,2 C 90 % 1025,2 hPa 0,0 l/m 0,0 km/h (0 Bft) W-NW 285 7,6 C 9,2 C 0,0 km/h (0 Bft)
31.05.2023 05:15 9,3 C 90 % 1025,2 hPa 0,0 l/m 0,0 km/h (0 Bft) W-NW 285 7,7 C 9,3 C 0,0 km/h (0 Bft)
31.05.2023 05:10 9,3 C 90 % 1025,2 hPa 0,0 l/m 0,0 km/h (0 Bft) W-NW 285 7,7 C 9,3 C 0,0 km/h (0 Bft)
31.05.2023 05:05 9,5 C 90 % 1025,2 hPa 0,0 l/m 0,0 km/h (0 Bft) W-NW 285 7,9 C 9,5 C 0,0 km/h (0 Bft)
31.05.2023 05:00 9,6 C 90 % 1025,1 hPa 0,0 l/m 0,0 km/h (0 Bft) W-NW 285 8,0 C 9,6 C 0,0 km/h (0 Bft)
31.05.2023 04:55 9,7 C 90 % 1025,2 hPa 0,0 l/m 0,0 km/h (0 Bft) W-NW 285 8,1 C 9,7 C 0,0 km/h (0 Bft)
31.05.2023 04:50 9,8 C 90 % 1025,2 hPa 0,0 l/m 0,0 km/h (0 Bft) W-NW 285 8,2 C 9,8 C 0,0 km/h (0 Bft)
31.05.2023 04:45 9,8 C 90 % 1025,3 hPa 0,0 l/m 0,0 km/h (0 Bft) W-NW 285 8,2 C 9,8 C 0,0 km/h (0 Bft)
31.05.2023 04:40 9,8 C 90 % 1025,3 hPa 0,0 l/m 0,0 km/h (0 Bft) W-NW 285 8,2 C 9,8 C 0,0 km/h (0 Bft)
31.05.2023 04:35 9,8 C 90 % 1025,3 hPa 0,0 l/m 0,0 km/h (0 Bft) W-NW 298 8,2 C 9,8 C 0,0 km/h (0 Bft)
31.05.2023 04:30 9,9 C 90 % 1025,3 hPa 0,0 l/m 0,0 km/h (0 Bft) W-NW 298 8,3 C 9,9 C 0,0 km/h (0 Bft)
31.05.2023 04:25 10,0 C 90 % 1025,4 hPa 0,0 l/m 0,0 km/h (0 Bft) W-NW 299 8,4 C 10,0 C 0,0 km/h (0 Bft)
31.05.2023 04:20 9,9 C 90 % 1025,3 hPa 0,0 l/m 0,0 km/h (0 Bft) N-NW 333 8,3 C 9,9 C 0,0 km/h (0 Bft)
31.05.2023 04:15 10,1 C 90 % 1025,3 hPa 0,0 l/m 0,0 km/h (0 Bft) N-NW 333 8,5 C 10,1 C 0,0 km/h (0 Bft)
31.05.2023 04:10 10,1 C 90 % 1025,3 hPa 0,0 l/m 0,7 km/h (0 Bft) N-NW 333 8,5 C 10,1 C 3,2 km/h (1 Bft)
31.05.2023 04:05 10,2 C 90 % 1025,3 hPa 0,0 l/m 1,8 km/h (1 Bft) N-NW 333 8,6 C 10,2 C 4,8 km/h (1 Bft)
31.05.2023 04:00 10,1 C 90 % 1025,3 hPa 0,0 l/m 1,1 km/h (1 Bft) N-NW 333 8,5 C 10,1 C 3,2 km/h (1 Bft)
31.05.2023 03:55 10,1 C 90 % 1025,2 hPa 0,0 l/m 1,8 km/h (1 Bft) N-NW 334 8,5 C 10,1 C 4,8 km/h (1 Bft)
31.05.2023 03:50 10,2 C 90 % 1025,3 hPa 0,0 l/m 0,9 km/h (0 Bft) N-NW 334 8,6 C 10,2 C 3,2 km/h (1 Bft)
31.05.2023 03:45 10,2 C 90 % 1025,3 hPa 0,0 l/m 0,8 km/h (0 Bft) N-NW 334 8,6 C 10,2 C 3,2 km/h (1 Bft)
31.05.2023 03:40 10,2 C 90 % 1025,3 hPa 0,0 l/m 0,2 km/h (0 Bft) N-NW 334 8,6 C 10,2 C 1,6 km/h (1 Bft)
31.05.2023 03:35 10,3 C 90 % 1025,3 hPa 0,0 l/m 1,1 km/h (1 Bft) N-NW 334 8,7 C 10,3 C 4,8 km/h (1 Bft)
31.05.2023 03:30 10,3 C 89 % 1025,4 hPa 0,0 l/m 1,2 km/h (1 Bft) N-NW 334 8,6 C 10,3 C 3,2 km/h (1 Bft)
31.05.2023 03:25 10,4 C 90 % 1025,3 hPa 0,0 l/m 0,1 km/h (0 Bft) N-NW 335 8,8 C 10,4 C 1,6 km/h (1 Bft)
31.05.2023 03:20 10,4 C 90 % 1025,3 hPa 0,0 l/m 1,0 km/h (0 Bft) N-NW 335 8,8 C 10,4 C 3,2 km/h (1 Bft)
31.05.2023 03:15 10,4 C 90 % 1025,2 hPa 0,0 l/m 2,7 km/h (1 Bft) N-NW 335 8,8 C 10,4 C 6,4 km/h (2 Bft)
31.05.2023 03:10 10,4 C 89 % 1025,2 hPa 0,0 l/m 0,2 km/h (0 Bft) O-NO 59 8,7 C 10,4 C 3,2 km/h (1 Bft)
31.05.2023 03:05 10,4 C 89 % 1025,3 hPa 0,0 l/m 0,6 km/h (0 Bft) O-NO 58 8,7 C 10,4 C 1,6 km/h (1 Bft)
31.05.2023 03:00 10,5 C 89 % 1025,3 hPa 0,0 l/m 0,2 km/h (0 Bft) O-NO 58 8,8 C 10,5 C 1,6 km/h (1 Bft)
31.05.2023 02:55 10,6 C 88 % 1025,2 hPa 0,0 l/m 0,1 km/h (0 Bft) O-NO 58 8,7 C 10,6 C 1,6 km/h (1 Bft)
31.05.2023 02:50 10,7 C 89 % 1025,2 hPa 0,0 l/m 0,1 km/h (0 Bft) O-NO 58 9,0 C 10,7 C 1,6 km/h (1 Bft)
31.05.2023 02:45 10,7 C 89 % 1025,2 hPa 0,0 l/m 0,7 km/h (0 Bft) O-NO 58 9,0 C 10,7 C 3,2 km/h (1 Bft)
31.05.2023 02:40 10,7 C 88 % 1025,2 hPa 0,0 l/m 0,3 km/h (0 Bft) O-NO 58 8,8 C 10,7 C 3,2 km/h (1 Bft)
31.05.2023 02:35 10,8 C 87 % 1025,2 hPa 0,0 l/m 0,0 km/h (0 Bft) O-NO 58 8,7 C 10,8 C 0,0 km/h (0 Bft)
31.05.2023 02:30 10,9 C 88 % 1025,2 hPa 0,0 l/m 1,0 km/h (0 Bft) O-NO 59 9,0 C 10,9 C 3,2 km/h (1 Bft)
31.05.2023 02:25 10,9 C 87 % 1025,2 hPa 0,0 l/m 0,0 km/h (0 Bft) O-NO 58 8,8 C 10,9 C 0,0 km/h (0 Bft)
31.05.2023 02:20 11,1 C 87 % 1025,3 hPa 0,0 l/m 0,0 km/h (0 Bft) O-NO 58 9,0 C 11,1 C 0,0 km/h (0 Bft)
31.05.2023 02:15 11,2 C 87 % 1025,3 hPa 0,0 l/m 0,0 km/h (0 Bft) O-NO 58 9,1 C 11,2 C 0,0 km/h (0 Bft)
31.05.2023 02:10 11,2 C 87 % 1025,2 hPa 0,0 l/m 0,0 km/h (0 Bft) O-NO 58 9,1 C 11,2 C 1,6 km/h (1 Bft)
31.05.2023 02:05 11,2 C 87 % 1025,2 hPa 0,0 l/m 0,1 km/h (0 Bft) O-NO 58 9,1 C 11,2 C 1,6 km/h (1 Bft)
31.05.2023 02:00 11,1 C 87 % 1025,1 hPa 0,0 l/m 0,5 km/h (0 Bft) O-NO 58 9,0 C 11,1 C 3,2 km/h (1 Bft)
31.05.2023 01:55 11,1 C 87 % 1025,2 hPa 0,0 l/m 0,5 km/h (0 Bft) O-NO 58 9,0 C 11,1 C 3,2 km/h (1 Bft)
31.05.2023 01:50 11,2 C 86 % 1025,2 hPa 0,0 l/m 0,0 km/h (0 Bft) O-NO 57 8,9 C 11,2 C 0,0 km/h (0 Bft)
31.05.2023 01:45 11,2 C 86 % 1025,3 hPa 0,0 l/m 0,0 km/h (0 Bft) O-NO 57 8,9 C 11,2 C 0,0 km/h (0 Bft)
31.05.2023 01:40 11,3 C 86 % 1025,3 hPa 0,0 l/m 0,0 km/h (0 Bft) O-NO 57 9,0 C 11,3 C 0,0 km/h (0 Bft)
31.05.2023 01:35 11,4 C 85 % 1025,2 hPa 0,0 l/m 0,0 km/h (0 Bft) O-NO 57 9,0 C 11,4 C 0,0 km/h (0 Bft)
31.05.2023 01:30 11,5 C 85 % 1025,3 hPa 0,0 l/m 0,0 km/h (0 Bft) O-NO 57 9,1 C 11,5 C 0,0 km/h (0 Bft)
31.05.2023 01:25 11,6 C 85 % 1025,2 hPa 0,0 l/m 0,0 km/h (0 Bft) O-NO 57 9,2 C 11,6 C 0,0 km/h (0 Bft)
31.05.2023 01:20 11,7 C 84 % 1025,2 hPa 0,0 l/m 0,0 km/h (0 Bft) O-NO 57 9,1 C 11,7 C 0,0 km/h (0 Bft)
31.05.2023 01:15 11,8 C 84 % 1025,2 hPa 0,0 l/m 0,0 km/h (0 Bft) O-NO 57 9,2 C 11,8 C 0,0 km/h (0 Bft)
31.05.2023 01:10 11,9 C 84 % 1025,3 hPa 0,0 l/m 0,0 km/h (0 Bft) O-NO 57 9,3 C 11,9 C 0,0 km/h (0 Bft)
31.05.2023 01:05 11,9 C 85 % 1025,2 hPa 0,0 l/m 0,0 km/h (0 Bft) O-NO 57 9,5 C 11,9 C 0,0 km/h (0 Bft)
31.05.2023 01:00 11,9 C 85 % 1025,2 hPa 0,0 l/m 0,0 km/h (0 Bft) O-NO 57 9,5 C 11,9 C 0,0 km/h (0 Bft)
31.05.2023 00:55 11,9 C 84 % 1025,1 hPa 0,0 l/m 0,0 km/h (0 Bft) O-NO 57 9,3 C 11,9 C 0,0 km/h (0 Bft)
31.05.2023 00:50 12,1 C 84 % 1025,1 hPa 0,0 l/m 0,0 km/h (0 Bft) O-NO 57 9,5 C 12,1 C 0,0 km/h (0 Bft)
31.05.2023 00:45 12,2 C 83 % 1025,2 hPa 0,0 l/m 0,0 km/h (0 Bft) O-NO 57 9,4 C 12,2 C 0,0 km/h (0 Bft)
31.05.2023 00:40 12,3 C 83 % 1025,2 hPa 0,0 l/m 0,0 km/h (0 Bft) O-NO 57 9,5 C 12,3 C 0,0 km/h (0 Bft)
31.05.2023 00:35 12,4 C 82 % 1025,1 hPa 0,0 l/m 0,0 km/h (0 Bft) O-NO 57 9,4 C 12,4 C 0,0 km/h (0 Bft)
31.05.2023 00:30 12,6 C 82 % 1025,0 hPa 0,0 l/m 0,1 km/h (0 Bft) O-NO 57 9,6 C 12,6 C 1,6 km/h (1 Bft)
31.05.2023 00:25 12,7 C 81 % 1025,1 hPa 0,0 l/m 0,0 km/h (0 Bft) NO 56 9,5 C 12,7 C 0,0 km/h (0 Bft)
31.05.2023 00:20 12,8 C 81 % 1025,1 hPa 0,0 l/m 0,0 km/h (0 Bft) NO 56 9,6 C 12,8 C 0,0 km/h (0 Bft)
31.05.2023 00:15 13,0 C 81 % 1025,0 hPa 0,0 l/m 0,2 km/h (0 Bft) NO 56 9,8 C 13,0 C 1,6 km/h (1 Bft)
31.05.2023 00:10 13,1 C 80 % 1025,1 hPa 0,0 l/m 0,0 km/h (0 Bft) NO 56 9,7 C 13,1 C 1,6 km/h (1 Bft)
31.05.2023 00:05 13,2 C 80 % 1025,1 hPa 0,0 l/m 0,0 km/h (0 Bft) NO 56 9,8 C 13,2 C 0,0 km/h (0 Bft)
31.05.2023 00:00 13,3 C 80 % 1025,1 hPa 0,0 l/m 0,1 km/h (0 Bft) NO 56 9,9 C 13,3 C 1,6 km/h (1 Bft)
30.05.2023 23:55 13,3 C 79 % 1025,1 hPa 0,0 l/m 0,9 km/h (0 Bft) NO 56 9,7 C 13,3 C 3,2 km/h (1 Bft)
30.05.2023 23:50 13,5 C 79 % 1025,1 hPa 0,0 l/m 0,2 km/h (0 Bft) NO 55 9,9 C 13,5 C 1,6 km/h (1 Bft)
30.05.2023 23:45 13,7 C 78 % 1025,1 hPa 0,0 l/m 0,7 km/h (0 Bft) NO 55 9,9 C 13,7 C 4,8 km/h (1 Bft)
30.05.2023 23:40 13,8 C 78 % 1025,1 hPa 0,0 l/m 0,2 km/h (0 Bft) NO 54 10,0 C 13,8 C 1,6 km/h (1 Bft)
30.05.2023 23:35 13,9 C 77 % 1025,0 hPa 0,0 l/m 0,7 km/h (0 Bft) NO 53 9,9 C 13,9 C 3,2 km/h (1 Bft)
30.05.2023 23:30 14,0 C 77 % 1024,9 hPa 0,0 l/m 1,6 km/h (1 Bft) NO 53 10,0 C 14,0 C 4,8 km/h (1 Bft)
30.05.2023 23:25 14,2 C 76 % 1025,0 hPa 0,0 l/m 0,7 km/h (0 Bft) NO 50 10,0 C 14,2 C 3,2 km/h (1 Bft)
30.05.2023 23:20 14,3 C 76 % 1024,9 hPa 0,0 l/m 1,2 km/h (1 Bft) NO 50 10,1 C 14,3 C 3,2 km/h (1 Bft)
30.05.2023 23:15 14,6 C 75 % 1024,9 hPa 0,0 l/m 1,6 km/h (1 Bft) NO 50 10,2 C 14,6 C 6,4 km/h (2 Bft)
30.05.2023 23:10 14,8 C 74 % 1024,9 hPa 0,0 l/m 1,0 km/h (0 Bft) NO 49 10,2 C 14,8 C 3,2 km/h (1 Bft)
30.05.2023 23:05 15,2 C 73 % 1024,8 hPa 0,0 l/m 0,2 km/h (0 Bft) NO 47 10,4 C 15,2 C 3,2 km/h (1 Bft)
30.05.2023 23:00 15,4 C 72 % 1024,9 hPa 0,0 l/m 0,2 km/h (0 Bft) NO 47 10,4 C 15,4 C 1,6 km/h (1 Bft)
30.05.2023 22:55 15,6 C 71 % 1024,8 hPa 0,0 l/m 0,0 km/h (0 Bft) NO 47 10,4 C 15,6 C 0,0 km/h (0 Bft)
30.05.2023 22:50 15,7 C 71 % 1024,8 hPa 0,0 l/m 0,0 km/h (0 Bft) NO 47 10,5 C 15,7 C 0,0 km/h (0 Bft)
30.05.2023 22:45 15,9 C 70 % 1024,9 hPa 0,0 l/m 1,1 km/h (1 Bft) NO 47 10,4 C 15,9 C 4,8 km/h (1 Bft)
30.05.2023 22:40 16,1 C 69 % 1024,8 hPa 0,0 l/m 2,0 km/h (1 Bft) NO 46 10,4 C 16,1 C 4,8 km/h (1 Bft)
30.05.2023 22:35 16,2 C 69 % 1024,7 hPa 0,0 l/m 2,2 km/h (1 Bft) NO 46 10,5 C 16,2 C 8,0 km/h (2 Bft)
30.05.2023 22:30 16,4 C 68 % 1024,6 hPa 0,0 l/m 1,5 km/h (1 Bft) NO 55 10,5 C 16,4 C 4,8 km/h (1 Bft)
30.05.2023 22:25 16,5 C 67 % 1024,6 hPa 0,0 l/m 3,4 km/h (1 Bft) NO 55 10,4 C 16,5 C 8,0 km/h (2 Bft)
30.05.2023 22:20 16,7 C 67 % 1024,5 hPa 0,0 l/m 2,8 km/h (1 Bft) NO 43 10,5 C 16,7 C 8,0 km/h (2 Bft)
30.05.2023 22:15 16,8 C 66 % 1024,5 hPa 0,0 l/m 2,5 km/h (1 Bft) NO 55 10,4 C 16,8 C 6,4 km/h (2 Bft)
30.05.2023 22:10 16,9 C 65 % 1024,5 hPa 0,0 l/m 4,0 km/h (1 Bft) NO 54 10,3 C 16,9 C 8,0 km/h (2 Bft)
30.05.2023 22:05 17,0 C 65 % 1024,6 hPa 0,0 l/m 4,4 km/h (1 Bft) O-NO 57 10,4 C 17,0 C 8,0 km/h (2 Bft)
30.05.2023 22:00 17,1 C 65 % 1024,4 hPa 0,0 l/m 4,5 km/h (1 Bft) NO 46 10,5 C 17,1 C 14,5 km/h (3 Bft)
30.05.2023 21:55 17,2 C 64 % 1024,4 hPa 0,0 l/m 3,0 km/h (1 Bft) NO 44 10,3 C 17,2 C 8,0 km/h (2 Bft)
30.05.2023 21:50 17,3 C 64 % 1024,3 hPa 0,0 l/m 4,5 km/h (1 Bft) N-NO 32 10,4 C 17,3 C 9,7 km/h (2 Bft)
30.05.2023 21:45 17,5 C 63 % 1024,2 hPa 0,0 l/m 3,9 km/h (1 Bft) NO 34 10,4 C 17,5 C 8,0 km/h (2 Bft)
30.05.2023 21:40 17,7 C 62 % 1024,2 hPa 0,0 l/m 3,9 km/h (1 Bft) O-NO 58 10,3 C 17,7 C 8,0 km/h (2 Bft)
30.05.2023 21:35 17,8 C 62 % 1024,3 hPa 0,0 l/m 5,2 km/h (1 Bft) NO 37 10,4 C 17,8 C 12,9 km/h (3 Bft)
30.05.2023 21:30 17,9 C 62 % 1024,2 hPa 0,0 l/m 5,2 km/h (1 Bft) NO 49 10,5 C 17,9 C 9,7 km/h (2 Bft)
30.05.2023 21:25 18,1 C 61 % 1024,2 hPa 0,0 l/m 4,8 km/h (1 Bft) NO 44 10,5 C 18,1 C 11,3 km/h (2 Bft)
30.05.2023 21:20 18,3 C 61 % 1024,1 hPa 0,0 l/m 5,0 km/h (1 Bft) NO 36 10,6 C 18,3 C 9,7 km/h (2 Bft)
30.05.2023 21:15 18,5 C 60 % 1024,2 hPa 0,0 l/m 3,8 km/h (1 Bft) O-NO 58 10,6 C 18,5 C 6,4 km/h (2 Bft)
30.05.2023 21:10 18,7 C 60 % 1024,1 hPa 0,0 l/m 5,5 km/h (2 Bft) O-NO 69 10,8 C 18,7 C 11,3 km/h (2 Bft)
30.05.2023 21:05 18,9 C 59 % 1024,1 hPa 0,0 l/m 4,6 km/h (1 Bft) NO 36 10,7 C 18,9 C 9,7 km/h (2 Bft)
30.05.2023 21:00 19,1 C 58 % 1024,0 hPa 0,0 l/m 4,5 km/h (1 Bft) N-NW 332 10,6 C 19,1 C 14,5 km/h (3 Bft)
30.05.2023 20:55 19,3 C 58 % 1024,1 hPa 0,0 l/m 6,1 km/h (2 Bft) NO 50 10,8 C 19,3 C 12,9 km/h (3 Bft)
30.05.2023 20:50 19,6 C 57 % 1024,0 hPa 0,0 l/m 5,3 km/h (1 Bft) N-NO 32 10,8 C 19,6 C 11,3 km/h (2 Bft)
30.05.2023 20:45 19,7 C 57 % 1024,1 hPa 0,0 l/m 4,8 km/h (1 Bft) O-NO 66 10,9 C 19,7 C 11,3 km/h (2 Bft)
30.05.2023 20:40 19,8 C 56 % 1024,1 hPa 0,0 l/m 4,7 km/h (1 Bft) NO 34 10,8 C 19,8 C 9,7 km/h (2 Bft)
30.05.2023 20:35 19,9 C 56 % 1024,1 hPa 0,0 l/m 4,6 km/h (1 Bft) N-NO 16 10,9 C 19,9 C 9,7 km/h (2 Bft)
30.05.2023 20:30 20,1 C 55 % 1024,1 hPa 0,0 l/m 6,2 km/h (2 Bft) NO 38 10,8 C 20,1 C 12,9 km/h (3 Bft)
30.05.2023 20:25 20,3 C 55 % 1024,1 hPa 0,0 l/m 5,7 km/h (2 Bft) NO 44 11,0 C 20,3 C 12,9 km/h (3 Bft)
30.05.2023 20:20 20,4 C 55 % 1024,1 hPa 0,0 l/m 4,4 km/h (1 Bft) N-NO 28 11,1 C 20,4 C 11,3 km/h (2 Bft)
30.05.2023 20:15 20,5 C 54 % 1024,1 hPa 0,0 l/m 4,8 km/h (1 Bft) NO 46 10,9 C 20,5 C 12,9 km/h (3 Bft)
30.05.2023 20:10 20,6 C 53 % 1024,0 hPa 0,0 l/m 6,4 km/h (2 Bft) NO 43 10,7 C 20,6 C 14,5 km/h (3 Bft)
30.05.2023 20:05 20,7 C 54 % 1024,0 hPa 0,0 l/m 3,9 km/h (1 Bft) NO 40 11,1 C 20,7 C 9,7 km/h (2 Bft)
30.05.2023 20:00 20,8 C 54 % 1024,0 hPa 0,0 l/m 4,5 km/h (1 Bft) NO 54 11,1 C 20,8 C 12,9 km/h (3 Bft)
_ Min-Zeit 06:05 16:55 19:05 - 22:50 - - 05:45 06:05 22:50
Minimum _ 8,7 C 33 % 1020,7 hPa - 0,0 km/h (0 Bft) - - 7,3 C 8,7 C 0,0 km/h (0 Bft)
_ Max-Zeit 17:40 07:00 07:20 20:00 13:25 - - 10:30 17:45 13:00
Maximum _ 27,6 C 94 % 1025,6 hPa 0,0 l/m 9,1 km/h
NO (2 Bft)
- - 13,2 C 27,6 C 20,9 km/h
O (4 Bft)
Durchschnitt _ 18,0 C 64 % 1024,2 hPa #0,0 l/m 2,5 km/h (1 Bft) O-NO - 10,1 C 18,0 C 7,1 km/h (2 Bft)
www.klaudt.eu